sensor_id;sensor_type;location;lat;lon;timestamp;temperature;humidity
71879;DHT22;59755;43.834;4.364;2023-04-04T00:00:59;10.50;46.30
71879;DHT22;59755;43.834;4.364;2023-04-04T00:03:25;10.50;46.30
71879;DHT22;59755;43.834;4.364;2023-04-04T00:05:50;10.50;46.40
71879;DHT22;59755;43.834;4.364;2023-04-04T00:08:16;10.40;46.40
71879;DHT22;59755;43.834;4.364;2023-04-04T00:10:41;10.40;46.50
71879;DHT22;59755;43.834;4.364;2023-04-04T00:13:07;10.50;46.50
71879;DHT22;59755;43.834;4.364;2023-04-04T00:15:33;10.50;46.40
71879;DHT22;59755;43.834;4.364;2023-04-04T00:18:00;10.40;46.30
71879;DHT22;59755;43.834;4.364;2023-04-04T00:20:26;10.40;46.40
71879;DHT22;59755;43.834;4.364;2023-04-04T00:22:52;10.40;46.30
71879;DHT22;59755;43.834;4.364;2023-04-04T00:25:18;10.40;46.20
71879;DHT22;59755;43.834;4.364;2023-04-04T00:27:44;10.40;46.20
71879;DHT22;59755;43.834;4.364;2023-04-04T00:30:10;10.40;46.20
71879;DHT22;59755;43.834;4.364;2023-04-04T00:32:36;10.50;46.00
71879;DHT22;59755;43.834;4.364;2023-04-04T00:35:02;10.40;46.20
71879;DHT22;59755;43.834;4.364;2023-04-04T00:37:28;10.40;46.00
71879;DHT22;59755;43.834;4.364;2023-04-04T00:39:53;10.40;46.00
71879;DHT22;59755;43.834;4.364;2023-04-04T00:42:19;10.40;46.10
71879;DHT22;59755;43.834;4.364;2023-04-04T00:44:45;10.30;46.20
71879;DHT22;59755;43.834;4.364;2023-04-04T00:47:11;10.20;46.30
71879;DHT22;59755;43.834;4.364;2023-04-04T00:49:36;10.20;46.40
71879;DHT22;59755;43.834;4.364;2023-04-04T00:52:02;10.10;46.60
71879;DHT22;59755;43.834;4.364;2023-04-04T00:54:31;10.20;46.20
71879;DHT22;59755;43.834;4.364;2023-04-04T00:56:56;10.30;46.00
71879;DHT22;59755;43.834;4.364;2023-04-04T00:59:22;10.20;46.10
71879;DHT22;59755;43.834;4.364;2023-04-04T01:01:48;10.10;46.20
71879;DHT22;59755;43.834;4.364;2023-04-04T01:04:13;10.10;46.20
71879;DHT22;59755;43.834;4.364;2023-04-04T01:06:39;10.10;46.10
71879;DHT22;59755;43.834;4.364;2023-04-04T01:09:05;10.10;46.10
71879;DHT22;59755;43.834;4.364;2023-04-04T01:11:31;10.10;45.90
71879;DHT22;59755;43.834;4.364;2023-04-04T01:13:57;10.10;45.80
71879;DHT22;59755;43.834;4.364;2023-04-04T01:16:23;10.10;45.80
71879;DHT22;59755;43.834;4.364;2023-04-04T01:18:49;10.00;45.80
71879;DHT22;59755;43.834;4.364;2023-04-04T01:21:15;10.00;45.50
71879;DHT22;59755;43.834;4.364;2023-04-04T01:23:59;10.00;45.60
71879;DHT22;59755;43.834;4.364;2023-04-04T01:26:25;10.00;45.70
71879;DHT22;59755;43.834;4.364;2023-04-04T01:28:52;9.90;45.90
71879;DHT22;59755;43.834;4.364;2023-04-04T01:31:20;9.90;45.80
71879;DHT22;59755;43.834;4.364;2023-04-04T01:33:49;9.90;45.80
71879;DHT22;59755;43.834;4.364;2023-04-04T01:36:24;9.90;45.50
71879;DHT22;59755;43.834;4.364;2023-04-04T01:38:53;9.90;45.50
71879;DHT22;59755;43.834;4.364;2023-04-04T01:41:21;9.80;45.70
71879;DHT22;59755;43.834;4.364;2023-04-04T01:43:46;9.80;45.70
71879;DHT22;59755;43.834;4.364;2023-04-04T01:46:12;9.70;46.10
71879;DHT22;59755;43.834;4.364;2023-04-04T01:48:38;9.80;46.10
71879;DHT22;59755;43.834;4.364;2023-04-04T01:51:03;9.60;46.50
71879;DHT22;59755;43.834;4.364;2023-04-04T01:53:29;9.60;46.40
71879;DHT22;59755;43.834;4.364;2023-04-04T01:55:55;9.60;46.50
71879;DHT22;59755;43.834;4.364;2023-04-04T01:58:21;9.60;46.40
71879;DHT22;59755;43.834;4.364;2023-04-04T02:00:46;9.70;46.10
71879;DHT22;59755;43.834;4.364;2023-04-04T02:03:12;9.60;46.10
71879;DHT22;59755;43.834;4.364;2023-04-04T02:05:38;9.60;46.10
71879;DHT22;59755;43.834;4.364;2023-04-04T02:08:03;9.60;46.20
71879;DHT22;59755;43.834;4.364;2023-04-04T02:10:29;9.60;46.20
71879;DHT22;59755;43.834;4.364;2023-04-04T02:12:55;9.50;46.30
71879;DHT22;59755;43.834;4.364;2023-04-04T02:15:22;9.50;46.50
71879;DHT22;59755;43.834;4.364;2023-04-04T02:17:48;9.40;46.10
71879;DHT22;59755;43.834;4.364;2023-04-04T02:20:14;9.40;46.10
71879;DHT22;59755;43.834;4.364;2023-04-04T02:22:40;9.40;46.10
71879;DHT22;59755;43.834;4.364;2023-04-04T02:25:06;9.40;46.00
71879;DHT22;59755;43.834;4.364;2023-04-04T02:27:32;9.30;46.10
71879;DHT22;59755;43.834;4.364;2023-04-04T02:29:57;9.40;46.00
71879;DHT22;59755;43.834;4.364;2023-04-04T02:32:23;9.40;46.00
71879;DHT22;59755;43.834;4.364;2023-04-04T02:34:48;9.40;45.90
71879;DHT22;59755;43.834;4.364;2023-04-04T02:37:14;9.40;45.90
71879;DHT22;59755;43.834;4.364;2023-04-04T02:39:39;9.30;45.80
71879;DHT22;59755;43.834;4.364;2023-04-04T02:42:05;9.30;45.80
71879;DHT22;59755;43.834;4.364;2023-04-04T02:44:31;9.40;45.80
71879;DHT22;59755;43.834;4.364;2023-04-04T02:46:56;9.30;45.70
71879;DHT22;59755;43.834;4.364;2023-04-04T02:49:22;9.30;45.70
71879;DHT22;59755;43.834;4.364;2023-04-04T02:51:47;9.10;46.00
71879;DHT22;59755;43.834;4.364;2023-04-04T02:54:13;9.10;45.90
71879;DHT22;59755;43.834;4.364;2023-04-04T02:56:38;9.10;46.00
71879;DHT22;59755;43.834;4.364;2023-04-04T02:59:04;9.10;46.00
71879;DHT22;59755;43.834;4.364;2023-04-04T03:01:30;9.00;46.00
71879;DHT22;59755;43.834;4.364;2023-04-04T03:03:55;9.00;46.00
71879;DHT22;59755;43.834;4.364;2023-04-04T03:06:21;9.00;46.10
71879;DHT22;59755;43.834;4.364;2023-04-04T03:08:46;9.00;46.10
71879;DHT22;59755;43.834;4.364;2023-04-04T03:11:15;9.00;46.00
71879;DHT22;59755;43.834;4.364;2023-04-04T03:13:41;8.90;46.00
71879;DHT22;59755;43.834;4.364;2023-04-04T03:16:07;8.90;46.10
71879;DHT22;59755;43.834;4.364;2023-04-04T03:18:32;8.80;46.20
71879;DHT22;59755;43.834;4.364;2023-04-04T03:20:59;8.80;46.20
71879;DHT22;59755;43.834;4.364;2023-04-04T03:23:24;8.80;46.10
71879;DHT22;59755;43.834;4.364;2023-04-04T03:25:50;8.90;45.90
71879;DHT22;59755;43.834;4.364;2023-04-04T03:28:15;8.80;46.10
71879;DHT22;59755;43.834;4.364;2023-04-04T03:30:41;8.80;46.00
71879;DHT22;59755;43.834;4.364;2023-04-04T03:33:07;8.80;45.80
71879;DHT22;59755;43.834;4.364;2023-04-04T03:35:37;8.90;45.90
71879;DHT22;59755;43.834;4.364;2023-04-04T03:38:03;8.90;45.60
71879;DHT22;59755;43.834;4.364;2023-04-04T03:40:29;8.80;45.80
71879;DHT22;59755;43.834;4.364;2023-04-04T03:42:55;8.90;45.60
71879;DHT22;59755;43.834;4.364;2023-04-04T03:45:20;8.90;45.60
71879;DHT22;59755;43.834;4.364;2023-04-04T03:47:46;8.80;45.70
71879;DHT22;59755;43.834;4.364;2023-04-04T03:50:12;8.80;45.80
71879;DHT22;59755;43.834;4.364;2023-04-04T03:52:38;8.80;45.60
71879;DHT22;59755;43.834;4.364;2023-04-04T03:55:06;8.90;45.30
71879;DHT22;59755;43.834;4.364;2023-04-04T03:57:32;8.80;45.60
71879;DHT22;59755;43.834;4.364;2023-04-04T03:59:58;8.80;45.60
71879;DHT22;59755;43.834;4.364;2023-04-04T04:02:23;8.70;45.60
71879;DHT22;59755;43.834;4.364;2023-04-04T04:04:49;8.60;45.70
71879;DHT22;59755;43.834;4.364;2023-04-04T04:07:15;8.70;45.70
71879;DHT22;59755;43.834;4.364;2023-04-04T04:09:40;8.70;45.60
71879;DHT22;59755;43.834;4.364;2023-04-04T04:12:06;8.70;45.70
71879;DHT22;59755;43.834;4.364;2023-04-04T04:14:32;8.60;45.60
71879;DHT22;59755;43.834;4.364;2023-04-04T04:16:57;8.60;45.70
71879;DHT22;59755;43.834;4.364;2023-04-04T04:19:23;8.60;45.70
71879;DHT22;59755;43.834;4.364;2023-04-04T04:21:48;8.50;45.80
71879;DHT22;59755;43.834;4.364;2023-04-04T04:24:14;8.50;45.70
71879;DHT22;59755;43.834;4.364;2023-04-04T04:26:40;8.50;45.60
71879;DHT22;59755;43.834;4.364;2023-04-04T04:29:05;8.60;45.70
71879;DHT22;59755;43.834;4.364;2023-04-04T04:31:32;8.50;45.60
71879;DHT22;59755;43.834;4.364;2023-04-04T04:33:58;8.50;45.90
71879;DHT22;59755;43.834;4.364;2023-04-04T04:36:23;8.50;45.80
71879;DHT22;59755;43.834;4.364;2023-04-04T04:38:49;8.50;45.40
71879;DHT22;59755;43.834;4.364;2023-04-04T04:41:15;8.50;45.50
71879;DHT22;59755;43.834;4.364;2023-04-04T04:43:40;8.50;45.80
71879;DHT22;59755;43.834;4.364;2023-04-04T04:46:06;8.40;45.60
71879;DHT22;59755;43.834;4.364;2023-04-04T04:48:33;8.30;45.70
71879;DHT22;59755;43.834;4.364;2023-04-04T04:50:58;8.40;45.70
71879;DHT22;59755;43.834;4.364;2023-04-04T04:53:24;8.30;45.60
71879;DHT22;59755;43.834;4.364;2023-04-04T04:55:50;8.30;45.70
71879;DHT22;59755;43.834;4.364;2023-04-04T04:58:19;8.30;45.70
71879;DHT22;59755;43.834;4.364;2023-04-04T05:00:48;8.30;45.70
71879;DHT22;59755;43.834;4.364;2023-04-04T05:03:14;8.20;45.80
71879;DHT22;59755;43.834;4.364;2023-04-04T05:05:41;8.20;45.90
71879;DHT22;59755;43.834;4.364;2023-04-04T05:08:07;8.20;46.10
71879;DHT22;59755;43.834;4.364;2023-04-04T05:13:35;8.10;46.00
71879;DHT22;59755;43.834;4.364;2023-04-04T05:16:01;8.20;46.00
71879;DHT22;59755;43.834;4.364;2023-04-04T05:18:27;8.20;46.20
71879;DHT22;59755;43.834;4.364;2023-04-04T05:20:53;8.10;46.30
71879;DHT22;59755;43.834;4.364;2023-04-04T05:23:18;8.10;46.50
71879;DHT22;59755;43.834;4.364;2023-04-04T05:25:44;8.10;46.20
71879;DHT22;59755;43.834;4.364;2023-04-04T05:28:10;8.10;46.40
71879;DHT22;59755;43.834;4.364;2023-04-04T05:30:36;8.10;46.10
71879;DHT22;59755;43.834;4.364;2023-04-04T05:33:01;8.00;46.40
71879;DHT22;59755;43.834;4.364;2023-04-04T05:35:27;8.00;46.20
71879;DHT22;59755;43.834;4.364;2023-04-04T05:37:52;8.00;46.20
71879;DHT22;59755;43.834;4.364;2023-04-04T05:40:18;8.00;46.10
71879;DHT22;59755;43.834;4.364;2023-04-04T05:42:52;8.00;46.10
71879;DHT22;59755;43.834;4.364;2023-04-04T05:45:18;8.00;46.30
71879;DHT22;59755;43.834;4.364;2023-04-04T05:47:43;8.20;46.50
71879;DHT22;59755;43.834;4.364;2023-04-04T05:50:09;8.20;45.70
71879;DHT22;59755;43.834;4.364;2023-04-04T05:52:35;8.20;46.20
71879;DHT22;59755;43.834;4.364;2023-04-04T05:55:00;8.30;45.80
71879;DHT22;59755;43.834;4.364;2023-04-04T05:57:26;8.40;45.70
71879;DHT22;59755;43.834;4.364;2023-04-04T05:59:52;8.40;45.60
71879;DHT22;59755;43.834;4.364;2023-04-04T06:02:18;8.30;45.70
71879;DHT22;59755;43.834;4.364;2023-04-04T06:04:44;8.20;45.90
71879;DHT22;59755;43.834;4.364;2023-04-04T06:07:10;8.30;45.70
71879;DHT22;59755;43.834;4.364;2023-04-04T06:09:35;8.40;45.50
71879;DHT22;59755;43.834;4.364;2023-04-04T06:12:01;8.40;45.10
71879;DHT22;59755;43.834;4.364;2023-04-04T06:14:29;8.40;45.10
71879;DHT22;59755;43.834;4.364;2023-04-04T06:16:55;8.40;45.20
71879;DHT22;59755;43.834;4.364;2023-04-04T06:19:20;8.40;44.90
71879;DHT22;59755;43.834;4.364;2023-04-04T06:21:46;8.40;45.30
71879;DHT22;59755;43.834;4.364;2023-04-04T06:24:11;8.50;45.20
71879;DHT22;59755;43.834;4.364;2023-04-04T06:26:37;8.50;44.90
71879;DHT22;59755;43.834;4.364;2023-04-04T06:29:03;8.60;44.50
71879;DHT22;59755;43.834;4.364;2023-04-04T06:31:29;8.50;44.70
71879;DHT22;59755;43.834;4.364;2023-04-04T06:33:55;8.40;44.90
71879;DHT22;59755;43.834;4.364;2023-04-04T06:36:21;8.60;45.20
71879;DHT22;59755;43.834;4.364;2023-04-04T06:38:47;8.70;45.00
71879;DHT22;59755;43.834;4.364;2023-04-04T06:41:12;8.70;44.70
71879;DHT22;59755;43.834;4.364;2023-04-04T06:43:38;8.70;44.60
71879;DHT22;59755;43.834;4.364;2023-04-04T06:46:03;8.70;44.50
71879;DHT22;59755;43.834;4.364;2023-04-04T06:48:29;8.70;44.50
71879;DHT22;59755;43.834;4.364;2023-04-04T06:50:55;8.70;44.70
71879;DHT22;59755;43.834;4.364;2023-04-04T06:53:20;8.80;44.60
71879;DHT22;59755;43.834;4.364;2023-04-04T06:55:47;8.70;44.90
71879;DHT22;59755;43.834;4.364;2023-04-04T06:58:13;8.80;44.50
71879;DHT22;59755;43.834;4.364;2023-04-04T07:00:39;8.80;44.50
71879;DHT22;59755;43.834;4.364;2023-04-04T07:03:04;8.80;44.60
71879;DHT22;59755;43.834;4.364;2023-04-04T07:05:30;8.70;45.00
71879;DHT22;59755;43.834;4.364;2023-04-04T07:07:56;8.80;44.60
71879;DHT22;59755;43.834;4.364;2023-04-04T07:10:22;8.90;44.40
71879;DHT22;59755;43.834;4.364;2023-04-04T07:12:48;8.90;44.40
71879;DHT22;59755;43.834;4.364;2023-04-04T07:15:13;9.00;44.10
71879;DHT22;59755;43.834;4.364;2023-04-04T07:17:39;9.10;43.90
71879;DHT22;59755;43.834;4.364;2023-04-04T07:20:08;9.20;44.10
71879;DHT22;59755;43.834;4.364;2023-04-04T07:22:38;9.20;43.70
71879;DHT22;59755;43.834;4.364;2023-04-04T07:25:04;9.30;43.60
71879;DHT22;59755;43.834;4.364;2023-04-04T07:27:30;9.30;43.60
71879;DHT22;59755;43.834;4.364;2023-04-04T07:29:56;9.30;43.70
71879;DHT22;59755;43.834;4.364;2023-04-04T07:32:21;9.40;43.50
71879;DHT22;59755;43.834;4.364;2023-04-04T07:34:47;9.50;43.50
71879;DHT22;59755;43.834;4.364;2023-04-04T07:37:13;9.60;43.10
71879;DHT22;59755;43.834;4.364;2023-04-04T07:39:39;9.60;42.90
71879;DHT22;59755;43.834;4.364;2023-04-04T07:42:05;9.70;42.90
71879;DHT22;59755;43.834;4.364;2023-04-04T07:44:30;9.70;42.50
71879;DHT22;59755;43.834;4.364;2023-04-04T07:46:56;9.70;42.60
71879;DHT22;59755;43.834;4.364;2023-04-04T07:49:22;9.70;42.60
71879;DHT22;59755;43.834;4.364;2023-04-04T07:51:47;9.70;42.40
71879;DHT22;59755;43.834;4.364;2023-04-04T07:54:13;9.60;42.90
71879;DHT22;59755;43.834;4.364;2023-04-04T07:56:39;9.80;42.90
71879;DHT22;59755;43.834;4.364;2023-04-04T07:59:04;10.00;42.40
71879;DHT22;59755;43.834;4.364;2023-04-04T08:01:30;9.90;42.50
71879;DHT22;59755;43.834;4.364;2023-04-04T08:03:56;10.00;42.40
71879;DHT22;59755;43.834;4.364;2023-04-04T08:06:21;10.00;42.40
71879;DHT22;59755;43.834;4.364;2023-04-04T08:08:47;10.10;42.20
71879;DHT22;59755;43.834;4.364;2023-04-04T08:11:13;10.20;42.30
71879;DHT22;59755;43.834;4.364;2023-04-04T08:13:38;10.20;41.80
71879;DHT22;59755;43.834;4.364;2023-04-04T08:16:04;10.30;41.80
71879;DHT22;59755;43.834;4.364;2023-04-04T08:18:30;10.30;41.80
71879;DHT22;59755;43.834;4.364;2023-04-04T08:20:56;10.40;41.70
71879;DHT22;59755;43.834;4.364;2023-04-04T08:23:22;10.50;41.50
71879;DHT22;59755;43.834;4.364;2023-04-04T08:25:48;10.40;41.60
71879;DHT22;59755;43.834;4.364;2023-04-04T08:28:13;10.40;41.60
71879;DHT22;59755;43.834;4.364;2023-04-04T08:30:39;10.60;41.40
71879;DHT22;59755;43.834;4.364;2023-04-04T08:33:05;10.70;41.40
71879;DHT22;59755;43.834;4.364;2023-04-04T08:35:31;10.70;40.80
71879;DHT22;59755;43.834;4.364;2023-04-04T08:37:56;10.70;41.20
71879;DHT22;59755;43.834;4.364;2023-04-04T08:40:22;10.80;41.20
71879;DHT22;59755;43.834;4.364;2023-04-04T08:42:48;10.90;40.70
71879;DHT22;59755;43.834;4.364;2023-04-04T08:45:16;10.90;40.50
71879;DHT22;59755;43.834;4.364;2023-04-04T08:47:42;11.00;40.50
71879;DHT22;59755;43.834;4.364;2023-04-04T08:50:08;11.10;40.70
71879;DHT22;59755;43.834;4.364;2023-04-04T08:52:34;11.00;40.60
71879;DHT22;59755;43.834;4.364;2023-04-04T08:55:00;11.10;40.30
71879;DHT22;59755;43.834;4.364;2023-04-04T08:57:27;11.40;39.90
71879;DHT22;59755;43.834;4.364;2023-04-04T08:59:53;11.40;39.80
71879;DHT22;59755;43.834;4.364;2023-04-04T09:05:03;11.70;39.10
71879;DHT22;59755;43.834;4.364;2023-04-04T09:07:29;11.70;39.20
71879;DHT22;59755;43.834;4.364;2023-04-04T09:09:55;12.00;39.20
71879;DHT22;59755;43.834;4.364;2023-04-04T09:12:21;12.10;39.10
71879;DHT22;59755;43.834;4.364;2023-04-04T09:14:49;11.90;39.00
71879;DHT22;59755;43.834;4.364;2023-04-04T09:17:15;11.90;39.20
71879;DHT22;59755;43.834;4.364;2023-04-04T09:19:41;12.00;38.60
71879;DHT22;59755;43.834;4.364;2023-04-04T09:22:07;12.10;38.70
71879;DHT22;59755;43.834;4.364;2023-04-04T09:24:37;12.30;38.30
71879;DHT22;59755;43.834;4.364;2023-04-04T09:27:03;12.40;38.00
71879;DHT22;59755;43.834;4.364;2023-04-04T09:29:28;12.50;38.00
71879;DHT22;59755;43.834;4.364;2023-04-04T09:31:54;12.20;38.10
71879;DHT22;59755;43.834;4.364;2023-04-04T09:34:20;12.20;38.30
71879;DHT22;59755;43.834;4.364;2023-04-04T09:36:46;12.40;37.90
71879;DHT22;59755;43.834;4.364;2023-04-04T09:39:12;12.70;37.50
71879;DHT22;59755;43.834;4.364;2023-04-04T09:41:40;12.60;37.90
71879;DHT22;59755;43.834;4.364;2023-04-04T09:44:06;12.60;37.60
71879;DHT22;59755;43.834;4.364;2023-04-04T09:46:35;12.90;37.30
71879;DHT22;59755;43.834;4.364;2023-04-04T09:49:01;13.00;37.00
71879;DHT22;59755;43.834;4.364;2023-04-04T09:51:35;12.80;36.90
71879;DHT22;59755;43.834;4.364;2023-04-04T09:54:00;12.60;37.30
71879;DHT22;59755;43.834;4.364;2023-04-04T09:56:26;12.70;37.30
71879;DHT22;59755;43.834;4.364;2023-04-04T09:58:52;12.70;37.40
71879;DHT22;59755;43.834;4.364;2023-04-04T10:01:18;13.10;36.60
71879;DHT22;59755;43.834;4.364;2023-04-04T10:03:50;13.40;36.20
71879;DHT22;59755;43.834;4.364;2023-04-04T10:06:16;13.60;36.40
71879;DHT22;59755;43.834;4.364;2023-04-04T10:08:42;14.00;35.70
71879;DHT22;59755;43.834;4.364;2023-04-04T10:11:08;14.20;35.30
71879;DHT22;59755;43.834;4.364;2023-04-04T10:13:34;13.70;35.80
71879;DHT22;59755;43.834;4.364;2023-04-04T10:16:00;14.00;35.50
71879;DHT22;59755;43.834;4.364;2023-04-04T10:18:27;13.60;35.60
71879;DHT22;59755;43.834;4.364;2023-04-04T10:20:53;13.50;35.80
71879;DHT22;59755;43.834;4.364;2023-04-04T10:23:25;13.80;35.20
71879;DHT22;59755;43.834;4.364;2023-04-04T10:25:52;13.90;34.60
71879;DHT22;59755;43.834;4.364;2023-04-04T10:28:18;14.10;34.80
71879;DHT22;59755;43.834;4.364;2023-04-04T10:30:57;14.60;34.10
71879;DHT22;59755;43.834;4.364;2023-04-04T10:33:36;14.50;34.20
71879;DHT22;59755;43.834;4.364;2023-04-04T10:36:03;14.90;33.50
71879;DHT22;59755;43.834;4.364;2023-04-04T10:38:33;14.90;33.40
71879;DHT22;59755;43.834;4.364;2023-04-04T10:40:59;16.00;31.70
71879;DHT22;59755;43.834;4.364;2023-04-04T10:43:26;16.20;31.40
71879;DHT22;59755;43.834;4.364;2023-04-04T10:45:55;17.20;30.10
71879;DHT22;59755;43.834;4.364;2023-04-04T10:48:21;18.00;29.30
71879;DHT22;59755;43.834;4.364;2023-04-04T10:50:48;19.00;28.30
71879;DHT22;59755;43.834;4.364;2023-04-04T10:53:14;18.60;27.90
71879;DHT22;59755;43.834;4.364;2023-04-04T10:55:40;18.70;28.10
71879;DHT22;59755;43.834;4.364;2023-04-04T10:58:08;18.80;27.80
71879;DHT22;59755;43.834;4.364;2023-04-04T11:00:47;19.80;27.10
71879;DHT22;59755;43.834;4.364;2023-04-04T11:03:13;20.60;26.40
71879;DHT22;59755;43.834;4.364;2023-04-04T11:05:39;21.00;25.70
71879;DHT22;59755;43.834;4.364;2023-04-04T11:08:14;20.40;26.10
71879;DHT22;59755;43.834;4.364;2023-04-04T11:10:41;20.40;26.30
71879;DHT22;59755;43.834;4.364;2023-04-04T11:13:08;21.00;25.50
71879;DHT22;59755;43.834;4.364;2023-04-04T11:18:22;21.30;25.50
71879;DHT22;59755;43.834;4.364;2023-04-04T11:21:14;21.80;24.80
71879;DHT22;59755;43.834;4.364;2023-04-04T11:26:13;22.60;24.20
71879;DHT22;59755;43.834;4.364;2023-04-04T11:28:42;23.60;23.50
71879;DHT22;59755;43.834;4.364;2023-04-04T11:44:16;23.70;22.90
71879;DHT22;59755;43.834;4.364;2023-04-04T11:46:42;22.70;23.40
71879;DHT22;59755;43.834;4.364;2023-04-04T11:49:08;22.40;24.00
71879;DHT22;59755;43.834;4.364;2023-04-04T11:51:34;23.30;23.30
71879;DHT22;59755;43.834;4.364;2023-04-04T11:54:01;23.50;23.10
71879;DHT22;59755;43.834;4.364;2023-04-04T11:56:26;24.60;22.30
71879;DHT22;59755;43.834;4.364;2023-04-04T11:58:52;24.50;22.30
71879;DHT22;59755;43.834;4.364;2023-04-04T12:01:18;24.60;22.10
71879;DHT22;59755;43.834;4.364;2023-04-04T12:03:44;24.20;22.10
71879;DHT22;59755;43.834;4.364;2023-04-04T12:06:10;24.20;22.30
71879;DHT22;59755;43.834;4.364;2023-04-04T12:08:37;23.60;22.80
71879;DHT22;59755;43.834;4.364;2023-04-04T12:11:05;24.30;21.90
71879;DHT22;59755;43.834;4.364;2023-04-04T12:13:31;25.00;21.40
71879;DHT22;59755;43.834;4.364;2023-04-04T12:15:57;24.40;21.70
71879;DHT22;59755;43.834;4.364;2023-04-04T12:18:22;25.00;20.90
71879;DHT22;59755;43.834;4.364;2023-04-04T12:20:51;24.20;21.50
71879;DHT22;59755;43.834;4.364;2023-04-04T12:23:17;24.40;21.50
71879;DHT22;59755;43.834;4.364;2023-04-04T12:25:51;24.80;21.10
71879;DHT22;59755;43.834;4.364;2023-04-04T12:28:20;24.90;20.90
71879;DHT22;59755;43.834;4.364;2023-04-04T12:30:46;24.70;21.00
71879;DHT22;59755;43.834;4.364;2023-04-04T12:33:15;24.30;21.30
71879;DHT22;59755;43.834;4.364;2023-04-04T12:35:40;24.30;21.40
71879;DHT22;59755;43.834;4.364;2023-04-04T12:38:15;24.30;21.50
71879;DHT22;59755;43.834;4.364;2023-04-04T12:40:44;25.50;20.70
71879;DHT22;59755;43.834;4.364;2023-04-04T12:43:15;25.90;20.40
71879;DHT22;59755;43.834;4.364;2023-04-04T12:45:41;26.00;20.20
71879;DHT22;59755;43.834;4.364;2023-04-04T12:48:09;24.90;20.70
71879;DHT22;59755;43.834;4.364;2023-04-04T12:50:44;24.80;20.60
71879;DHT22;59755;43.834;4.364;2023-04-04T12:53:12;25.60;20.30
71879;DHT22;59755;43.834;4.364;2023-04-04T12:55:38;25.40;20.20
71879;DHT22;59755;43.834;4.364;2023-04-04T12:58:09;25.30;20.30
71879;DHT22;59755;43.834;4.364;2023-04-04T13:00:36;25.30;20.20
71879;DHT22;59755;43.834;4.364;2023-04-04T13:03:01;24.60;20.80
71879;DHT22;59755;43.834;4.364;2023-04-04T13:05:27;25.60;20.30
71879;DHT22;59755;43.834;4.364;2023-04-04T13:08:04;26.70;19.60
71879;DHT22;59755;43.834;4.364;2023-04-04T13:10:29;26.30;19.60
71879;DHT22;59755;43.834;4.364;2023-04-04T13:12:56;26.30;19.60
71879;DHT22;59755;43.834;4.364;2023-04-04T13:16:08;26.70;19.30
71879;DHT22;59755;43.834;4.364;2023-04-04T13:18:13;25.40;20.10
71879;DHT22;59755;43.834;4.364;2023-04-04T13:20:39;25.70;19.70
71879;DHT22;59755;43.834;4.364;2023-04-04T13:23:04;26.20;19.80
71879;DHT22;59755;43.834;4.364;2023-04-04T13:25:30;27.00;19.10
71879;DHT22;59755;43.834;4.364;2023-04-04T13:27:56;27.10;18.90
71879;DHT22;59755;43.834;4.364;2023-04-04T13:30:22;27.10;19.30
71879;DHT22;59755;43.834;4.364;2023-04-04T13:32:47;28.40;18.50
71879;DHT22;59755;43.834;4.364;2023-04-04T13:35:13;28.30;18.70
71879;DHT22;59755;43.834;4.364;2023-04-04T13:37:39;27.30;18.80
71879;DHT22;59755;43.834;4.364;2023-04-04T13:40:04;27.00;19.00
71879;DHT22;59755;43.834;4.364;2023-04-04T13:42:30;28.20;18.50
71879;DHT22;59755;43.834;4.364;2023-04-04T13:44:56;28.30;18.20
71879;DHT22;59755;43.834;4.364;2023-04-04T13:47:22;27.80;18.30
71879;DHT22;59755;43.834;4.364;2023-04-04T13:49:48;26.90;18.70
71879;DHT22;59755;43.834;4.364;2023-04-04T13:52:13;26.10;19.20
71879;DHT22;59755;43.834;4.364;2023-04-04T13:54:39;26.80;18.80
71879;DHT22;59755;43.834;4.364;2023-04-04T13:57:05;27.20;18.60
71879;DHT22;59755;43.834;4.364;2023-04-04T13:59:31;27.10;18.80
71879;DHT22;59755;43.834;4.364;2023-04-04T14:01:56;26.90;18.50
71879;DHT22;59755;43.834;4.364;2023-04-04T14:04:22;26.90;18.60
71879;DHT22;59755;43.834;4.364;2023-04-04T14:06:47;25.90;18.90
71879;DHT22;59755;43.834;4.364;2023-04-04T14:09:13;26.30;18.60
71879;DHT22;59755;43.834;4.364;2023-04-04T14:11:39;26.80;18.20
71879;DHT22;59755;43.834;4.364;2023-04-04T14:14:05;26.60;17.80
71879;DHT22;59755;43.834;4.364;2023-04-04T14:16:31;26.90;18.10
71879;DHT22;59755;43.834;4.364;2023-04-04T14:18:57;27.20;18.10
71879;DHT22;59755;43.834;4.364;2023-04-04T14:21:22;26.70;18.30
71879;DHT22;59755;43.834;4.364;2023-04-04T14:23:49;25.40;19.10
71879;DHT22;59755;43.834;4.364;2023-04-04T14:26:15;25.90;19.00
71879;DHT22;59755;43.834;4.364;2023-04-04T14:28:41;27.00;18.60
71879;DHT22;59755;43.834;4.364;2023-04-04T14:31:07;27.50;18.40
71879;DHT22;59755;43.834;4.364;2023-04-04T14:33:32;26.90;18.70
71879;DHT22;59755;43.834;4.364;2023-04-04T14:35:58;26.40;19.10
71879;DHT22;59755;43.834;4.364;2023-04-04T14:38:23;25.80;19.60
71879;DHT22;59755;43.834;4.364;2023-04-04T14:40:49;25.80;19.70
71879;DHT22;59755;43.834;4.364;2023-04-04T14:43:15;26.00;19.70
71879;DHT22;59755;43.834;4.364;2023-04-04T14:45:40;25.50;20.20
71879;DHT22;59755;43.834;4.364;2023-04-04T14:48:06;24.70;20.50
71879;DHT22;59755;43.834;4.364;2023-04-04T14:50:32;24.20;20.60
71879;DHT22;59755;43.834;4.364;2023-04-04T14:52:57;24.10;20.80
71879;DHT22;59755;43.834;4.364;2023-04-04T14:55:23;24.70;20.50
71879;DHT22;59755;43.834;4.364;2023-04-04T14:57:49;23.80;21.10
71879;DHT22;59755;43.834;4.364;2023-04-04T15:00:15;23.70;21.00
71879;DHT22;59755;43.834;4.364;2023-04-04T15:02:45;23.80;21.00
71879;DHT22;59755;43.834;4.364;2023-04-04T15:05:12;23.70;21.10
71879;DHT22;59755;43.834;4.364;2023-04-04T15:07:38;22.90;21.60
71879;DHT22;59755;43.834;4.364;2023-04-04T15:10:03;22.40;22.10
71879;DHT22;59755;43.834;4.364;2023-04-04T15:12:29;22.10;22.80
71879;DHT22;59755;43.834;4.364;2023-04-04T15:14:55;20.90;23.80
71879;DHT22;59755;43.834;4.364;2023-04-04T15:17:20;20.10;24.30
71879;DHT22;59755;43.834;4.364;2023-04-04T15:19:46;19.10;25.40
71879;DHT22;59755;43.834;4.364;2023-04-04T15:22:11;18.70;25.20
71879;DHT22;59755;43.834;4.364;2023-04-04T15:24:37;18.30;25.80
71879;DHT22;59755;43.834;4.364;2023-04-04T15:27:02;17.70;26.50
71879;DHT22;59755;43.834;4.364;2023-04-04T15:29:28;17.70;27.20
71879;DHT22;59755;43.834;4.364;2023-04-04T15:31:53;17.70;27.40
71879;DHT22;59755;43.834;4.364;2023-04-04T15:34:20;16.90;27.90
71879;DHT22;59755;43.834;4.364;2023-04-04T15:36:45;16.80;28.40
71879;DHT22;59755;43.834;4.364;2023-04-04T15:39:11;16.90;28.40
71879;DHT22;59755;43.834;4.364;2023-04-04T15:41:36;16.70;27.90
71879;DHT22;59755;43.834;4.364;2023-04-04T15:44:02;16.60;27.70
71879;DHT22;59755;43.834;4.364;2023-04-04T15:46:29;16.60;27.70
71879;DHT22;59755;43.834;4.364;2023-04-04T15:48:55;16.30;28.80
71879;DHT22;59755;43.834;4.364;2023-04-04T15:51:20;16.20;29.00
71879;DHT22;59755;43.834;4.364;2023-04-04T15:53:46;16.10;29.00
71879;DHT22;59755;43.834;4.364;2023-04-04T15:56:11;16.00;28.70